createdAt,value
2017-09-23T00:01:06.925Z,47.80
2017-09-23T00:03:35.016Z,47.70
2017-09-23T00:06:03.148Z,47.40
2017-09-23T00:08:31.235Z,47.00
2017-09-23T00:10:59.312Z,46.90
2017-09-23T00:13:27.399Z,46.90
2017-09-23T00:15:55.514Z,47.10
2017-09-23T00:18:23.564Z,46.70
2017-09-23T00:20:52.416Z,46.70
2017-09-23T00:23:20.518Z,46.60
2017-09-23T00:25:48.592Z,47.00
2017-09-23T00:28:16.706Z,46.60
2017-09-23T00:30:44.777Z,46.50
2017-09-23T00:33:12.859Z,46.60
2017-09-23T00:35:40.944Z,46.80
2017-09-23T00:38:09.749Z,46.70
2017-09-23T00:40:37.831Z,46.80
2017-09-23T00:43:05.923Z,47.00
2017-09-23T00:45:34.775Z,47.20
2017-09-23T00:48:02.868Z,47.30
2017-09-23T00:50:30.957Z,47.20
2017-09-23T00:52:59.042Z,47.50
2017-09-23T00:55:27.899Z,47.90
2017-09-23T00:57:55.989Z,47.80
2017-09-23T01:00:24.063Z,47.70
2017-09-23T01:02:52.154Z,48.20
2017-09-23T01:05:21.000Z,48.30
2017-09-23T01:07:49.084Z,48.20
2017-09-23T01:10:17.156Z,48.40
2017-09-23T01:12:45.239Z,49.00
2017-09-23T01:15:13.324Z,48.90
2017-09-23T01:17:42.176Z,48.50
2017-09-23T01:20:10.260Z,48.40
2017-09-23T01:22:38.355Z,48.70
2017-09-23T01:25:08.163Z,48.20
2017-09-23T01:27:36.240Z,48.10
2017-09-23T01:30:04.320Z,47.70
2017-09-23T01:32:33.194Z,48.50
2017-09-23T01:35:01.262Z,48.50
2017-09-23T01:37:29.359Z,48.80
2017-09-23T01:39:58.223Z,50.00
2017-09-23T01:42:26.308Z,49.90
2017-09-23T01:44:54.403Z,50.00
2017-09-23T01:47:23.243Z,51.30
2017-09-23T01:49:51.335Z,51.10
2017-09-23T01:52:19.424Z,51.70
2017-09-23T01:54:48.288Z,50.90
2017-09-23T01:57:16.354Z,50.80
2017-09-23T01:59:44.440Z,50.50
2017-09-23T02:02:12.525Z,49.90
2017-09-23T02:04:40.611Z,49.80
2017-09-23T02:07:09.463Z,48.60
2017-09-23T02:09:37.546Z,48.60
2017-09-23T02:12:05.655Z,48.20
2017-09-23T02:14:34.504Z,47.70
2017-09-23T02:17:02.570Z,47.70
2017-09-23T02:19:30.643Z,48.10
2017-09-23T02:21:58.719Z,49.90
2017-09-23T02:24:26.807Z,53.30
2017-09-23T02:26:54.886Z,57.20
2017-09-23T02:29:22.976Z,57.60
2017-09-23T02:31:51.828Z,58.20
2017-09-23T02:34:19.912Z,58.20
2017-09-23T02:36:47.982Z,58.10
2017-09-23T02:39:16.068Z,58.70
2017-09-23T02:41:44.143Z,58.70
2017-09-23T02:44:12.234Z,60.50
2017-09-23T02:46:41.080Z,59.60
2017-09-23T02:49:09.172Z,59.50
2017-09-23T02:51:37.255Z,59.30
2017-09-23T02:54:05.340Z,58.80
2017-09-23T02:56:34.195Z,60.30
2017-09-23T02:59:02.277Z,60.30
2017-09-23T03:01:30.360Z,59.00
2017-09-23T03:03:58.451Z,59.20
2017-09-23T03:06:27.301Z,59.90
2017-09-23T03:08:55.396Z,59.80
2017-09-23T03:11:23.476Z,61.10
2017-09-23T03:13:52.330Z,62.40
2017-09-23T03:16:20.407Z,62.30
2017-09-23T03:18:48.496Z,61.30
2017-09-23T03:21:16.572Z,61.20
2017-09-23T03:23:44.665Z,60.00
2017-09-23T03:26:13.526Z,59.70
2017-09-23T03:28:41.616Z,59.60
2017-09-23T03:31:09.691Z,58.90
2017-09-23T03:33:37.773Z,59.50
2017-09-23T03:36:06.624Z,60.30
2017-09-23T03:38:34.704Z,60.30
2017-09-23T03:41:02.779Z,58.60
2017-09-23T03:43:30.885Z,58.00
2017-09-23T03:45:59.732Z,57.80
2017-09-23T03:48:27.823Z,57.70
2017-09-23T03:50:55.909Z,57.10
2017-09-23T03:53:23.982Z,55.80
2017-09-23T03:55:52.831Z,55.90
2017-09-23T03:58:20.912Z,55.70
2017-09-23T04:00:49.012Z,54.50
2017-09-23T04:03:17.092Z,52.90
2017-09-23T04:05:45.975Z,52.20
2017-09-23T04:08:14.059Z,52.20
2017-09-23T04:10:42.145Z,52.00
2017-09-23T04:13:10.983Z,51.20
2017-09-23T04:15:39.076Z,51.20
2017-09-23T04:18:07.154Z,51.30
2017-09-23T04:20:35.244Z,50.80
2017-09-23T04:23:04.096Z,50.60
2017-09-23T04:25:32.192Z,50.50
2017-09-23T04:28:00.482Z,50.50
2017-09-23T04:30:29.356Z,50.40
2017-09-23T04:32:57.467Z,50.40
2017-09-23T04:35:25.580Z,50.40
2017-09-23T04:37:53.659Z,49.70
2017-09-23T04:40:21.760Z,49.70
2017-09-23T04:42:49.860Z,50.20
2017-09-23T04:45:19.139Z,49.40
2017-09-23T04:47:47.996Z,49.50
2017-09-23T04:50:16.079Z,49.50
2017-09-23T04:52:44.152Z,49.40
2017-09-23T04:55:12.240Z,49.40
2017-09-23T04:57:40.320Z,49.50
2017-09-23T05:00:09.175Z,49.50
2017-09-23T05:02:37.262Z,49.50
2017-09-23T05:05:05.400Z,49.50
2017-09-23T05:07:33.483Z,49.50
2017-09-23T05:10:01.587Z,49.50
2017-09-23T05:12:29.656Z,49.40
2017-09-23T05:14:57.752Z,49.80
2017-09-23T05:17:25.845Z,50.90
2017-09-23T05:19:53.940Z,49.80
2017-09-23T05:22:22.018Z,50.80
2017-09-23T05:24:50.114Z,54.00
2017-09-23T05:27:18.191Z,55.80
2017-09-23T05:29:46.284Z,57.00
2017-09-23T05:32:15.132Z,57.00
2017-09-23T05:34:43.216Z,56.90
2017-09-23T05:37:11.282Z,56.60
2017-09-23T05:39:39.376Z,56.40
2017-09-23T05:42:07.449Z,56.20
2017-09-23T05:44:35.531Z,56.00
2017-09-23T05:47:03.603Z,56.40
2017-09-23T05:49:31.691Z,56.70
2017-09-23T05:52:00.540Z,57.50
2017-09-23T05:54:28.635Z,57.50
2017-09-23T05:56:56.712Z,57.90
2017-09-23T05:59:24.796Z,57.90
2017-09-23T06:01:53.633Z,57.60
2017-09-23T06:04:22.480Z,58.90
2017-09-23T06:06:54.339Z,59.70
2017-09-23T06:09:23.192Z,60.90
2017-09-23T06:11:51.276Z,60.80
2017-09-23T06:14:19.410Z,61.90
2017-09-23T06:16:47.492Z,61.90
2017-09-23T06:19:16.356Z,62.40
2017-09-23T06:21:44.650Z,62.40
2017-09-23T06:24:12.735Z,61.70
2017-09-23T06:26:41.017Z,61.00
2017-09-23T06:29:09.099Z,60.00
2017-09-23T06:31:37.185Z,60.50
2017-09-23T06:34:05.272Z,60.20
2017-09-23T06:36:33.357Z,59.80
2017-09-23T06:39:02.199Z,58.90
2017-09-23T06:41:30.489Z,58.80
2017-09-23T06:43:58.623Z,58.40
2017-09-23T06:46:26.710Z,58.20
2017-09-23T06:48:55.557Z,58.30
2017-09-23T06:51:24.411Z,58.30
2017-09-23T06:53:52.487Z,58.20
2017-09-23T06:56:20.574Z,58.30
2017-09-23T06:58:48.659Z,57.90
2017-09-23T07:01:16.756Z,58.00
2017-09-23T07:03:45.591Z,56.50
2017-09-23T07:06:13.683Z,56.40
2017-09-23T07:08:41.755Z,56.40
2017-09-23T07:11:09.839Z,55.50
2017-09-23T07:13:37.911Z,55.20
2017-09-23T07:16:05.997Z,55.40
2017-09-23T07:18:34.846Z,54.20
2017-09-23T07:21:02.940Z,54.20
2017-09-23T07:23:31.019Z,54.40
2017-09-23T07:25:59.094Z,53.70
2017-09-23T07:28:27.176Z,52.80
2017-09-23T07:30:56.062Z,51.60
2017-09-23T07:33:24.145Z,51.50
2017-09-23T07:35:52.998Z,50.60
2017-09-23T07:38:21.067Z,50.60
2017-09-23T07:40:49.156Z,50.80
2017-09-23T07:43:17.226Z,50.80
2017-09-23T07:45:46.320Z,50.90
2017-09-23T07:48:14.407Z,49.50
2017-09-23T07:50:42.544Z,48.50
2017-09-23T07:53:10.632Z,48.40
2017-09-23T07:55:38.728Z,48.20
2017-09-23T07:58:06.825Z,48.00
2017-09-23T08:00:35.679Z,47.50
2017-09-23T08:03:03.759Z,47.50
2017-09-23T08:05:31.837Z,47.90
2017-09-23T08:07:59.911Z,47.30
2017-09-23T08:10:28.771Z,47.50
2017-09-23T08:12:56.848Z,47.50
2017-09-23T08:15:25.090Z,48.10
2017-09-23T08:17:53.171Z,48.60
2017-09-23T08:20:22.019Z,48.60
2017-09-23T08:22:50.880Z,47.60
2017-09-23T08:25:18.968Z,47.50
2017-09-23T08:27:47.044Z,46.90
2017-09-23T08:30:15.128Z,47.00
2017-09-23T08:32:43.984Z,47.20
2017-09-23T08:35:12.070Z,47.20
2017-09-23T08:37:40.168Z,47.20
2017-09-23T08:40:09.019Z,47.90
2017-09-23T08:42:37.095Z,47.80
2017-09-23T08:45:05.269Z,47.70
2017-09-23T08:47:33.350Z,46.90
2017-09-23T08:50:01.445Z,45.90
2017-09-23T08:52:29.516Z,45.40
2017-09-23T08:54:57.633Z,45.20
2017-09-23T08:57:25.722Z,45.50
2017-09-23T08:59:53.820Z,45.40
2017-09-23T09:02:21.904Z,43.30
2017-09-23T09:04:49.983Z,43.50
2017-09-23T09:07:18.850Z,41.10
2017-09-23T09:09:46.935Z,41.10
2017-09-23T09:12:15.019Z,40.20
2017-09-23T09:14:43.875Z,39.40
2017-09-23T09:17:11.963Z,39.40
2017-09-23T09:19:40.048Z,37.90
2017-09-23T09:22:08.129Z,37.20
2017-09-23T09:24:36.976Z,35.40
2017-09-23T09:27:05.073Z,35.40
2017-09-23T09:29:33.142Z,36.10
2017-09-23T09:32:01.235Z,36.90
2017-09-23T09:34:29.316Z,36.30
2017-09-23T09:36:58.174Z,35.50
2017-09-23T09:39:26.235Z,35.50
2017-09-23T09:41:54.323Z,35.60
2017-09-23T09:44:22.404Z,35.60
2017-09-23T09:46:50.483Z,35.70
2017-09-23T09:49:18.563Z,34.50
2017-09-23T09:51:47.416Z,33.40
2017-09-23T09:54:15.491Z,33.40
2017-09-23T09:56:43.585Z,33.50
2017-09-23T09:59:11.672Z,33.30
2017-09-23T10:01:40.537Z,33.40
2017-09-23T10:04:08.619Z,33.30
2017-09-23T10:06:36.708Z,31.70
2017-09-23T10:09:04.781Z,30.50
2017-09-23T10:11:32.875Z,30.30
2017-09-23T10:14:01.707Z,30.20
2017-09-23T10:16:29.794Z,30.10
2017-09-23T10:18:57.879Z,28.90
2017-09-23T10:21:25.967Z,28.30
2017-09-23T10:23:54.832Z,28.00
2017-09-23T10:26:22.915Z,27.90
2017-09-23T10:28:50.993Z,28.30
2017-09-23T10:31:19.080Z,27.80
2017-09-23T10:33:47.928Z,27.90
2017-09-23T10:36:16.024Z,28.00
2017-09-23T10:38:44.096Z,26.30
2017-09-23T10:41:12.175Z,25.60
2017-09-23T10:43:40.245Z,25.80
2017-09-23T10:46:08.328Z,26.10
2017-09-23T10:48:37.179Z,26.20
2017-09-23T10:51:05.260Z,26.10
2017-09-23T10:53:33.339Z,26.10
2017-09-23T10:56:01.429Z,26.50
2017-09-23T10:58:29.494Z,26.60
2017-09-23T11:00:57.575Z,26.70
2017-09-23T11:03:25.674Z,26.00
2017-09-23T11:05:53.768Z,25.80
2017-09-23T11:08:21.844Z,25.50
2017-09-23T11:10:50.695Z,26.00
2017-09-23T11:13:19.547Z,25.50
2017-09-23T11:15:47.634Z,25.50
2017-09-23T11:18:15.707Z,24.20
2017-09-23T11:20:43.791Z,24.90
2017-09-23T11:23:11.863Z,24.40
2017-09-23T11:25:39.951Z,23.70
2017-09-23T11:28:08.796Z,22.70
2017-09-23T11:30:36.884Z,22.60
2017-09-23T11:33:04.960Z,23.00
2017-09-23T11:35:33.040Z,23.70
2017-09-23T11:38:01.123Z,23.30
2017-09-23T11:40:29.963Z,23.70
2017-09-23T11:42:58.049Z,23.60
2017-09-23T11:45:26.119Z,23.60
2017-09-23T11:47:54.212Z,24.40
2017-09-23T11:50:22.284Z,23.30
2017-09-23T11:52:50.373Z,23.10
2017-09-23T11:55:18.463Z,23.70
2017-09-23T11:57:47.320Z,23.60
2017-09-23T12:00:15.400Z,23.50
2017-09-23T12:02:43.475Z,23.60
2017-09-23T12:05:11.562Z,22.50
2017-09-23T12:07:40.411Z,23.30
2017-09-23T12:10:08.483Z,23.30
2017-09-23T12:12:36.565Z,22.40
2017-09-23T12:15:04.636Z,22.40
2017-09-23T12:17:32.724Z,21.80
2017-09-23T12:20:00.816Z,22.40
2017-09-23T12:22:29.673Z,22.30
2017-09-23T12:24:57.763Z,22.20
2017-09-23T12:27:25.848Z,21.40
2017-09-23T12:29:54.692Z,21.50
2017-09-23T12:32:22.775Z,21.50
2017-09-23T12:34:50.859Z,21.20
2017-09-23T12:37:18.943Z,21.10
2017-09-23T12:39:47.017Z,20.70
2017-09-23T12:42:15.112Z,20.60
2017-09-23T12:44:43.954Z,20.90
2017-09-23T12:47:12.052Z,20.90
2017-09-23T12:49:40.128Z,21.40
2017-09-23T12:52:08.212Z,21.20
2017-09-23T12:54:37.042Z,20.70
2017-09-23T12:57:05.124Z,20.00
2017-09-23T12:59:33.200Z,20.40
2017-09-23T13:02:01.287Z,20.00
2017-09-23T13:04:29.587Z,19.40
2017-09-23T13:06:57.671Z,19.80
2017-09-23T13:09:26.536Z,19.70
2017-09-23T13:11:54.607Z,19.70
2017-09-23T13:14:22.687Z,20.20
2017-09-23T13:16:50.776Z,20.20
2017-09-23T13:19:18.847Z,20.80
2017-09-23T13:21:46.919Z,20.30
2017-09-23T13:24:15.785Z,21.10
2017-09-23T13:26:43.863Z,20.70
2017-09-23T13:29:11.947Z,21.70
2017-09-23T13:31:40.020Z,22.00
2017-09-23T13:34:08.096Z,21.00
2017-09-23T13:36:36.176Z,21.40
2017-09-23T13:39:05.028Z,21.20
2017-09-23T13:41:33.105Z,21.20
2017-09-23T13:44:01.192Z,21.00
2017-09-23T13:46:29.259Z,20.70
2017-09-23T13:48:57.344Z,20.80
2017-09-23T13:51:25.419Z,19.90
2017-09-23T13:53:53.507Z,19.30
2017-09-23T13:56:22.351Z,19.20
2017-09-23T13:58:50.452Z,19.20
2017-09-23T14:01:18.524Z,18.40
2017-09-23T14:03:46.601Z,18.30
2017-09-23T14:06:14.673Z,17.60
2017-09-23T14:08:42.747Z,18.60
2017-09-23T14:11:10.825Z,18.50
2017-09-23T14:13:38.938Z,17.50
2017-09-23T14:16:07.011Z,17.70
2017-09-23T14:18:35.858Z,19.80
2017-09-23T14:21:03.947Z,19.20
2017-09-23T14:23:32.793Z,20.00
2017-09-23T14:26:00.867Z,20.00
2017-09-23T14:28:28.947Z,19.60
2017-09-23T14:30:57.027Z,20.00
2017-09-23T14:33:25.103Z,19.70
2017-09-23T14:35:53.184Z,19.60
2017-09-23T14:38:21.266Z,20.00
2017-09-23T14:40:50.111Z,20.70
2017-09-23T14:43:18.207Z,20.70
2017-09-23T14:45:46.276Z,20.90
2017-09-23T14:48:14.369Z,21.20
2017-09-23T14:50:43.218Z,22.10
2017-09-23T14:53:11.315Z,22.10
2017-09-23T14:55:39.396Z,22.70
2017-09-23T14:58:07.480Z,22.70
2017-09-23T15:00:36.336Z,23.30
2017-09-23T15:03:04.424Z,23.30
2017-09-23T15:05:32.504Z,23.80
2017-09-23T15:08:00.583Z,23.60
2017-09-23T15:10:28.655Z,23.50
2017-09-23T15:12:56.816Z,23.60
2017-09-23T15:15:24.860Z,23.70
2017-09-23T15:17:52.960Z,23.70
2017-09-23T15:20:21.027Z,23.60
2017-09-23T15:22:49.143Z,24.30
2017-09-23T15:25:17.240Z,25.20
2017-09-23T15:27:45.315Z,25.10
2017-09-23T15:30:13.410Z,25.30
2017-09-23T15:32:41.484Z,25.60
2017-09-23T15:35:09.589Z,25.50
2017-09-23T15:37:38.431Z,25.30
2017-09-23T15:40:06.527Z,25.00
2017-09-23T15:42:34.608Z,25.60
2017-09-23T15:45:02.687Z,25.80
2017-09-23T15:47:30.759Z,25.90
2017-09-23T15:49:58.844Z,26.00
2017-09-23T15:52:27.696Z,26.20
2017-09-23T15:54:55.772Z,26.20
2017-09-23T15:57:23.855Z,26.80
2017-09-23T15:59:51.953Z,27.00
2017-09-23T16:02:20.830Z,27.80
2017-09-23T16:04:48.915Z,27.70
2017-09-23T16:07:17.759Z,28.30
2017-09-23T16:09:45.855Z,28.20
2017-09-23T16:12:13.934Z,28.30
2017-09-23T16:14:42.015Z,27.90
2017-09-23T16:17:10.097Z,27.70
2017-09-23T16:19:38.966Z,28.00
2017-09-23T16:22:07.056Z,27.90
2017-09-23T16:24:35.135Z,27.80
2017-09-23T16:27:03.983Z,28.20
2017-09-23T16:29:32.442Z,28.10
2017-09-23T16:32:00.531Z,28.40
2017-09-23T16:34:28.615Z,28.60
2017-09-23T16:36:56.700Z,29.20
2017-09-23T16:39:24.784Z,29.00
2017-09-23T16:41:52.856Z,29.40
2017-09-23T16:44:20.936Z,29.40
2017-09-23T16:46:48.999Z,29.70
2017-09-23T16:49:17.092Z,30.20
2017-09-23T16:51:45.928Z,31.50
2017-09-23T16:54:14.010Z,31.30
2017-09-23T16:56:42.083Z,31.80
2017-09-23T16:59:10.171Z,32.10
2017-09-23T17:01:38.247Z,32.00
2017-09-23T17:04:06.332Z,32.30
2017-09-23T17:06:34.408Z,32.70
2017-09-23T17:09:02.487Z,32.80
2017-09-23T17:11:31.335Z,33.30
2017-09-23T17:13:59.436Z,33.20
2017-09-23T17:16:27.508Z,33.50
2017-09-23T17:18:55.600Z,33.70
2017-09-23T17:21:24.628Z,34.10
2017-09-23T17:24:02.799Z,34.00
2017-09-23T17:26:31.666Z,33.70
2017-09-23T17:28:59.780Z,33.60
2017-09-23T17:31:27.859Z,33.80
2017-09-23T17:33:55.963Z,34.10
2017-09-23T17:36:24.264Z,34.70
2017-09-23T17:38:52.421Z,34.80
2017-09-23T17:41:20.529Z,35.30
2017-09-23T17:43:49.391Z,36.10
2017-09-23T17:46:17.483Z,36.00
2017-09-23T17:48:45.560Z,36.40
2017-09-23T17:51:13.652Z,37.00
2017-09-23T17:53:42.497Z,38.00
2017-09-23T17:56:10.596Z,38.00
2017-09-23T17:58:38.680Z,38.50
2017-09-23T18:01:06.768Z,39.20
2017-09-23T18:03:35.603Z,39.20
2017-09-23T18:06:03.705Z,39.10
2017-09-23T18:08:31.779Z,39.10
2017-09-23T18:10:59.863Z,39.90
2017-09-23T18:13:28.722Z,39.40
2017-09-23T18:15:56.807Z,39.30
2017-09-23T18:18:24.876Z,40.00
2017-09-23T18:20:52.990Z,39.60
2017-09-23T18:23:21.091Z,39.80
2017-09-23T18:25:49.184Z,39.40
2017-09-23T18:28:17.268Z,39.60
2017-09-23T18:30:45.371Z,40.10
2017-09-23T18:33:14.232Z,40.90
2017-09-23T18:35:42.328Z,40.80
2017-09-23T18:38:11.181Z,42.30
2017-09-23T18:40:39.275Z,42.20
2017-09-23T18:43:07.338Z,42.90
2017-09-23T18:45:35.424Z,42.60
2017-09-23T18:48:03.509Z,43.30
2017-09-23T18:50:32.373Z,43.10
2017-09-23T18:53:00.443Z,43.00
2017-09-23T18:55:28.531Z,44.30
2017-09-23T18:57:56.603Z,43.80
2017-09-23T19:00:24.688Z,43.40
2017-09-23T19:02:53.551Z,43.50
2017-09-23T19:05:21.636Z,43.90
2017-09-23T19:07:49.719Z,43.60
2017-09-23T19:10:17.801Z,43.30
2017-09-23T19:12:46.647Z,43.40
2017-09-23T19:15:14.956Z,43.30
2017-09-23T19:17:43.057Z,43.30
2017-09-23T19:20:11.172Z,43.40
2017-09-23T19:22:39.247Z,43.30
2017-09-23T19:25:07.336Z,44.20
2017-09-23T19:27:35.416Z,43.80
2017-09-23T19:30:03.495Z,43.70
2017-09-23T19:32:31.568Z,43.70
2017-09-23T19:34:59.653Z,43.80
2017-09-23T19:37:28.496Z,45.00
2017-09-23T19:39:56.612Z,44.90
2017-09-23T19:42:25.464Z,45.00
2017-09-23T19:44:53.548Z,45.00
2017-09-23T19:47:21.628Z,45.00
2017-09-23T19:49:49.719Z,45.20
2017-09-23T19:52:18.571Z,47.30
2017-09-23T19:54:46.652Z,47.10
2017-09-23T19:57:14.727Z,45.60
2017-09-23T19:59:42.812Z,45.70
2017-09-23T20:02:10.895Z,46.00
2017-09-23T20:04:38.972Z,46.40
2017-09-23T20:07:07.831Z,46.40
2017-09-23T20:09:35.912Z,46.30
2017-09-23T20:12:04.008Z,46.50
2017-09-23T20:14:32.870Z,46.70
2017-09-23T20:17:00.948Z,46.60
2017-09-23T20:19:29.024Z,46.80
2017-09-23T20:21:57.095Z,47.40
2017-09-23T20:24:25.174Z,47.80
2017-09-23T20:26:53.265Z,48.70
2017-09-23T20:29:22.103Z,48.60
2017-09-23T20:31:50.188Z,48.60
2017-09-23T20:34:18.263Z,48.40
2017-09-23T20:36:46.348Z,48.00
2017-09-23T20:39:14.425Z,47.70
2017-09-23T20:41:42.535Z,47.70
2017-09-23T20:44:10.640Z,48.00
2017-09-23T20:46:38.769Z,48.30
2017-09-23T20:49:07.632Z,49.20
2017-09-23T20:51:35.780Z,49.00
2017-09-23T20:54:03.864Z,49.10
2017-09-23T20:56:31.963Z,49.20
2017-09-23T20:59:00.043Z,49.30
2017-09-23T21:01:28.906Z,50.30
2017-09-23T21:03:57.004Z,50.10
2017-09-23T21:06:25.880Z,51.30
2017-09-23T21:08:53.968Z,51.20
2017-09-23T21:11:22.101Z,51.60
2017-09-23T21:13:50.203Z,52.00
2017-09-23T21:16:18.287Z,52.80
2017-09-23T21:18:46.365Z,52.10
2017-09-23T21:21:15.329Z,52.70
2017-09-23T21:23:43.419Z,52.60
2017-09-23T21:26:11.503Z,52.30
2017-09-23T21:28:40.359Z,52.80
2017-09-23T21:31:08.447Z,52.70
2017-09-23T21:33:36.567Z,52.80
2017-09-23T21:36:05.399Z,52.80
2017-09-23T21:38:33.496Z,52.70
2017-09-23T21:41:01.587Z,52.60
2017-09-23T21:43:29.963Z,52.60
2017-09-23T21:45:58.656Z,52.60
2017-09-23T21:48:26.746Z,52.50
2017-09-23T21:50:54.841Z,52.50
2017-09-23T21:53:22.927Z,52.60
2017-09-23T21:55:51.023Z,52.60
2017-09-23T21:58:19.110Z,52.50
2017-09-23T22:00:47.968Z,52.50
2017-09-23T22:03:16.072Z,52.30
2017-09-23T22:05:44.954Z,53.90
2017-09-23T22:08:13.866Z,53.70
2017-09-23T22:10:42.715Z,52.70
2017-09-23T22:13:10.804Z,52.70
2017-09-23T22:15:38.888Z,53.20
2017-09-23T22:18:06.976Z,53.30
2017-09-23T22:20:35.839Z,53.70
2017-09-23T22:23:03.926Z,53.60
2017-09-23T22:25:33.014Z,54.00
2017-09-23T22:28:01.101Z,54.20
2017-09-23T22:30:29.965Z,53.90
2017-09-23T22:32:58.056Z,53.80
2017-09-23T22:35:26.922Z,54.60
2017-09-23T22:37:55.027Z,53.90
2017-09-23T22:40:23.891Z,54.40
2017-09-23T22:42:51.986Z,54.30
2017-09-23T22:45:20.860Z,54.50
2017-09-23T22:47:48.953Z,54.40
2017-09-23T22:50:17.824Z,54.50
2017-09-23T22:52:45.902Z,54.50
2017-09-23T22:55:13.976Z,54.70
2017-09-23T22:57:42.067Z,54.90
2017-09-23T23:00:11.136Z,55.30
2017-09-23T23:02:39.245Z,55.20
2017-09-23T23:05:08.082Z,55.60
2017-09-23T23:07:36.189Z,55.50
2017-09-23T23:10:05.040Z,55.90
2017-09-23T23:12:33.137Z,55.40
2017-09-23T23:15:01.231Z,55.30
2017-09-23T23:17:30.122Z,55.00
2017-09-23T23:19:58.992Z,55.00
2017-09-23T23:22:27.099Z,54.90
2017-09-23T23:24:55.964Z,55.80
2017-09-23T23:27:24.065Z,55.70
2017-09-23T23:29:52.921Z,56.20
2017-09-23T23:32:21.020Z,56.10
2017-09-23T23:34:49.874Z,55.20
2017-09-23T23:37:17.979Z,55.10
2017-09-23T23:39:46.837Z,55.50
2017-09-23T23:42:14.948Z,55.30
2017-09-23T23:44:43.800Z,55.70
2017-09-23T23:47:11.901Z,55.60
2017-09-23T23:49:39.989Z,55.50
2017-09-23T23:52:08.836Z,55.00
2017-09-23T23:54:36.932Z,55.00
2017-09-23T23:57:05.809Z,55.00
2017-09-23T23:59:34.098Z,54.90
